Time;durP1;ratioP1;P1;durP2;ratioP2;P2;SDS_P1;SDS_P2;PMS_P1;PMS_P2;Temp;Humidity;BMP_temperature;BMP_pressure;BME280_temperature;BME280_humidity;BME280_pressure;Samples;Min_cycle;Max_cycle;Signal;HPM_P1;HPM_P2
2022/10/22 00:00:55;;;;;;;13.98;7.80;;;12.20;99.90;;;;;;4955009;28;20046;-89
2022/10/22 00:03:21;;;;;;;11.32;7.28;;;12.20;99.90;;;;;;4939291;28;20038;-89
2022/10/22 00:05:47;;;;;;;15.05;8.30;;;12.20;99.90;;;;;;4925238;28;20043;-89
2022/10/22 00:08:13;;;;;;;12.88;7.75;;;12.20;99.90;;;;;;4938086;28;20043;-89
2022/10/22 00:10:39;;;;;;;17.63;9.23;;;12.20;99.90;;;;;;4938525;28;20324;-88
2022/10/22 00:13:05;;;;;;;14.73;9.13;;;12.30;99.90;;;;;;4953801;28;20039;-89
2022/10/22 00:15:31;;;;;;;14.38;9.10;;;12.50;99.90;;;;;;4941977;28;20065;-88
2022/10/22 00:17:57;;;;;;;14.13;8.02;;;12.30;99.90;;;;;;4969089;28;20030;-89
2022/10/22 00:20:23;;;;;;;14.95;8.90;;;12.20;99.90;;;;;;4924615;28;20396;-89
2022/10/22 00:22:49;;;;;;;12.85;8.23;;;12.30;99.90;;;;;;4938247;28;20397;-89
2022/10/22 00:25:15;;;;;;;13.25;8.40;;;12.20;99.90;;;;;;4957256;28;20079;-89
2022/10/22 00:27:41;;;;;;;19.42;8.25;;;12.20;99.90;;;;;;4955174;28;20043;-89
2022/10/22 00:30:07;;;;;;;14.68;8.60;;;12.20;99.90;;;;;;4953213;28;20034;-89
2022/10/22 00:32:33;;;;;;;16.50;8.70;;;12.20;99.90;;;;;;4956363;29;20091;-89
2022/10/22 00:34:58;;;;;;;15.52;8.52;;;12.20;99.90;;;;;;4940102;28;20503;-89
2022/10/22 00:37:24;;;;;;;14.13;8.77;;;12.20;99.90;;;;;;4946527;28;20039;-89
2022/10/22 00:39:50;;;;;;;17.35;9.80;;;12.10;99.90;;;;;;4943305;28;20485;-89
2022/10/22 00:42:21;;;;;;;16.20;9.05;;;12.30;99.90;;;;;;4943304;28;20124;-90
2022/10/22 00:45:08;;;;;;;13.43;8.65;;;12.30;99.90;;;;;;4986043;28;20050;-89
2022/10/22 00:47:39;;;;;;;17.00;9.10;;;12.30;99.90;;;;;;4956375;28;20043;-90
2022/10/22 00:50:15;;;;;;;15.73;9.43;;;12.40;99.90;;;;;;4953160;28;20047;-89
2022/10/22 00:52:41;;;;;;;15.20;8.63;;;12.40;99.90;;;;;;4957587;28;20580;-90
2022/10/22 00:55:08;;;;;;;15.70;9.18;;;12.50;99.90;;;;;;4943623;28;20062;-89
2022/10/22 00:57:34;;;;;;;15.70;10.02;;;12.50;99.90;;;;;;4941959;28;20042;-89
2022/10/22 01:00:00;;;;;;;15.73;8.90;;;12.50;99.90;;;;;;4991167;28;20059;-90
2022/10/22 01:02:26;;;;;;;19.30;9.73;;;12.50;99.90;;;;;;4960326;28;20049;-89
2022/10/22 01:04:52;;;;;;;14.30;9.18;;;12.60;99.90;;;;;;4941507;28;20118;-90
2022/10/22 01:07:20;;;;;;;15.35;9.80;;;12.60;99.90;;;;;;4941162;28;20035;-89
2022/10/22 01:10:07;;;;;;;16.05;9.40;;;12.60;99.90;;;;;;4958291;28;20475;-89
2022/10/22 01:12:47;;;;;;;15.35;9.18;;;12.60;99.90;;;;;;4956366;28;20050;-89
2022/10/22 01:15:46;;;;;;;13.88;8.98;;;12.60;99.90;;;;;;4949079;28;20382;-89
2022/10/22 01:18:23;;;;;;;20.35;9.50;;;12.60;99.90;;;;;;4956942;28;20057;-90
2022/10/22 01:21:22;;;;;;;18.77;9.95;;;12.60;99.90;;;;;;4960205;28;20119;-90
2022/10/22 01:24:12;;;;;;;13.50;8.63;;;12.70;99.90;;;;;;4962539;28;20043;-90
2022/10/22 01:26:49;;;;;;;16.02;9.23;;;12.70;99.90;;;;;;4960020;28;20070;-90
2022/10/22 01:29:20;;;;;;;14.88;8.55;;;12.60;99.90;;;;;;4974775;28;20054;-90
2022/10/22 01:31:53;;;;;;;15.60;8.20;;;12.60;99.90;;;;;;4990929;28;20039;-90
2022/10/22 01:34:21;;;;;;;17.55;8.45;;;12.60;99.90;;;;;;4991695;28;20042;-90
2022/10/22 01:36:49;;;;;;;10.32;8.20;;;12.60;99.90;;;;;;4983872;28;20043;-90
2022/10/22 01:39:16;;;;;;;12.95;8.90;;;12.60;99.90;;;;;;4954545;28;20073;-90
2022/10/22 01:41:45;;;;;;;21.40;9.68;;;12.60;99.90;;;;;;4954925;28;20031;-90
2022/10/22 01:44:26;;;;;;;18.77;9.15;;;12.50;99.90;;;;;;4935608;28;20053;-90
2022/10/22 01:47:15;;;;;;;12.20;9.20;;;12.50;99.90;;;;;;4943171;28;20046;-90
2022/10/22 01:49:47;;;;;;;15.50;9.65;;;12.50;99.90;;;;;;4990041;28;20069;-90
2022/10/22 01:52:50;;;;;;;18.40;10.10;;;12.40;99.90;;;;;;4953763;28;20035;-90
2022/10/22 01:55:27;;;;;;;17.40;9.30;;;12.40;99.90;;;;;;4965090;28;20047;-89
2022/10/22 01:58:17;;;;;;;21.92;9.73;;;12.30;99.90;;;;;;4957599;28;20030;-90
2022/10/22 02:01:05;;;;;;;13.30;9.30;;;12.30;99.90;;;;;;4943930;28;20051;-90
2022/10/22 02:03:46;;;;;;;17.80;10.15;;;12.20;99.90;;;;;;4942147;28;20401;-90
2022/10/22 02:06:19;;;;;;;14.90;9.57;;;12.10;99.90;;;;;;4933505;28;20558;-90
2022/10/22 02:08:48;;;;;;;15.90;9.43;;;12.00;99.90;;;;;;4956430;28;20047;-90
2022/10/22 02:11:14;;;;;;;14.00;9.38;;;12.00;99.90;;;;;;4948714;28;20054;-90
2022/10/22 02:13:47;;;;;;;27.95;9.57;;;11.90;99.90;;;;;;4911995;29;20318;-90
2022/10/22 02:16:18;;;;;;;18.17;9.65;;;11.90;99.90;;;;;;4968012;28;20050;-90
2022/10/22 02:18:46;;;;;;;14.00;9.43;;;11.90;99.90;;;;;;4945305;28;20031;-90
2022/10/22 02:21:13;;;;;;;18.50;9.05;;;11.90;99.90;;;;;;4931756;28;20047;-90
2022/10/22 02:23:38;;;;;;;19.15;9.15;;;12.00;99.90;;;;;;4928600;28;20041;-90
2022/10/22 02:26:17;;;;;;;17.80;9.10;;;12.40;99.90;;;;;;4947529;28;20420;-90
2022/10/22 02:28:56;;;;;;;16.00;8.52;;;12.00;99.90;;;;;;4973574;28;20042;-89
2022/10/22 02:31:27;;;;;;;18.13;9.30;;;11.90;99.90;;;;;;4940514;28;20046;-90
2022/10/22 02:33:56;;;;;;;18.23;9.57;;;11.90;99.90;;;;;;4948869;28;20033;-89
2022/10/22 02:36:23;;;;;;;16.73;9.18;;;11.90;99.90;;;;;;4948333;28;20263;-89
2022/10/22 02:38:50;;;;;;;17.38;9.80;;;11.90;99.90;;;;;;4950384;28;20035;-90
2022/10/22 02:41:18;;;;;;;16.27;10.23;;;12.00;99.90;;;;;;4948378;28;20118;-90
2022/10/22 02:43:50;;;;;;;14.77;9.63;;;12.10;99.90;;;;;;4940729;28;20051;-90
2022/10/22 02:46:16;;;;;;;18.08;9.88;;;12.20;99.90;;;;;;4947620;28;20042;-90
2022/10/22 02:48:41;;;;;;;21.58;10.82;;;12.20;99.90;;;;;;4928725;29;20103;-90
2022/10/22 02:51:07;;;;;;;15.75;9.63;;;12.20;99.90;;;;;;4973973;28;20042;-90
2022/10/22 02:53:33;;;;;;;15.98;9.45;;;12.20;99.90;;;;;;4957309;28;20499;-90
2022/10/22 02:55:59;;;;;;;20.17;10.27;;;12.20;99.90;;;;;;4941335;28;20096;-90
2022/10/22 02:58:25;;;;;;;14.65;9.77;;;12.10;99.90;;;;;;4960129;28;20058;-89
2022/10/22 03:00:50;;;;;;;18.80;10.48;;;12.10;99.90;;;;;;4942369;28;20109;-89
2022/10/22 03:03:16;;;;;;;14.55;10.25;;;12.10;99.90;;;;;;4956888;28;20467;-90
2022/10/22 03:05:42;;;;;;;14.63;10.18;;;12.10;99.90;;;;;;4947051;29;20106;-90
2022/10/22 03:08:07;;;;;;;15.23;10.18;;;12.10;99.90;;;;;;4956091;28;20124;-90
2022/10/22 03:10:33;;;;;;;13.35;10.02;;;12.10;99.90;;;;;;4933095;28;20126;-90
2022/10/22 03:12:59;;;;;;;18.92;10.77;;;12.10;99.90;;;;;;4967665;28;20045;-90
2022/10/22 03:15:25;;;;;;;14.85;10.10;;;12.10;99.90;;;;;;4961387;28;20134;-90
2022/10/22 03:17:50;;;;;;;16.25;10.50;;;12.10;99.90;;;;;;4958228;28;20037;-90
2022/10/22 03:20:16;;;;;;;19.42;11.07;;;12.20;99.90;;;;;;4946553;28;20126;-90
2022/10/22 03:22:43;;;;;;;18.52;11.07;;;12.10;99.90;;;;;;4979787;28;20053;-90
2022/10/22 03:25:21;;;;;;;23.13;11.45;;;12.10;99.90;;;;;;4979629;28;20066;-90
2022/10/22 03:27:48;;;;;;;17.67;10.57;;;12.10;99.90;;;;;;4987746;28;20047;-90
2022/10/22 03:30:14;;;;;;;15.68;12.02;;;12.20;99.90;;;;;;4972444;28;20071;-91
2022/10/22 03:32:40;;;;;;;21.02;12.95;;;12.10;99.90;;;;;;4943026;28;20536;-91
2022/10/22 03:35:06;;;;;;;19.02;13.27;;;12.10;99.90;;;;;;4948030;28;20034;-91
2022/10/22 03:37:33;;;;;;;18.38;12.50;;;12.10;99.90;;;;;;4945748;28;20134;-91
2022/10/22 03:39:59;;;;;;;22.77;13.02;;;12.10;99.90;;;;;;4940371;28;20122;-90
2022/10/22 03:42:25;;;;;;;24.27;13.38;;;12.10;99.90;;;;;;4969629;28;20046;-90
2022/10/22 03:44:51;;;;;;;16.85;12.75;;;12.10;99.90;;;;;;4921189;28;20055;-90
2022/10/22 03:47:17;;;;;;;22.52;13.70;;;12.10;99.90;;;;;;4942294;28;20061;-90
2022/10/22 03:49:43;;;;;;;24.90;13.60;;;12.10;99.90;;;;;;4939376;28;20118;-90
2022/10/22 03:52:11;;;;;;;23.73;12.63;;;12.10;99.90;;;;;;4936275;28;20050;-90
2022/10/22 03:54:37;;;;;;;21.33;12.55;;;12.00;99.90;;;;;;4970575;28;20041;-90
2022/10/22 03:57:04;;;;;;;20.52;13.00;;;12.00;99.90;;;;;;4961143;28;20125;-90
2022/10/22 03:59:35;;;;;;;21.92;13.10;;;12.00;99.90;;;;;;4985149;28;20082;-90
2022/10/22 04:02:00;;;;;;;18.88;11.63;;;12.00;99.90;;;;;;4971799;28;20127;-90
2022/10/22 04:04:26;;;;;;;21.45;12.95;;;12.00;99.90;;;;;;4940580;28;20075;-90
2022/10/22 04:06:52;;;;;;;21.48;12.20;;;12.00;99.90;;;;;;4957386;28;20492;-90
2022/10/22 04:09:17;;;;;;;21.85;12.48;;;12.00;99.90;;;;;;4976411;28;20041;-90
2022/10/22 04:11:43;;;;;;;20.60;11.65;;;12.00;99.90;;;;;;4945886;28;20085;-90
2022/10/22 04:14:10;;;;;;;21.85;11.50;;;12.00;99.90;;;;;;4934725;28;20038;-90
2022/10/22 04:16:38;;;;;;;22.60;12.70;;;12.00;99.90;;;;;;4930275;28;20046;-90
2022/10/22 04:19:04;;;;;;;23.05;12.00;;;12.10;99.90;;;;;;4973956;28;20403;-90
2022/10/22 04:21:30;;;;;;;21.20;11.90;;;12.00;99.90;;;;;;4975699;28;20431;-90
2022/10/22 04:23:56;;;;;;;19.10;11.82;;;12.00;99.90;;;;;;4975400;28;20036;-91
2022/10/22 04:26:22;;;;;;;18.15;11.55;;;12.00;99.90;;;;;;4941507;28;20046;-91
2022/10/22 04:28:49;;;;;;;27.60;12.07;;;11.90;99.90;;;;;;4941460;28;20063;-90
2022/10/22 04:31:17;;;;;;;18.15;11.05;;;11.90;99.90;;;;;;4978211;28;20070;-91
2022/10/22 04:33:43;;;;;;;15.52;11.07;;;11.80;99.90;;;;;;4959704;28;20089;-90
2022/10/22 04:36:14;;;;;;;19.20;11.25;;;11.80;99.90;;;;;;4958255;28;20114;-90
2022/10/22 04:38:42;;;;;;;15.90;11.60;;;11.70;99.90;;;;;;4955014;28;20545;-90
2022/10/22 04:41:13;;;;;;;22.55;11.30;;;11.70;99.90;;;;;;4957994;28;20114;-90
2022/10/22 04:43:40;;;;;;;21.77;11.75;;;11.70;99.90;;;;;;4973795;28;20055;-90
2022/10/22 04:46:07;;;;;;;22.02;12.07;;;11.70;99.90;;;;;;4974253;28;20070;-90
2022/10/22 04:48:35;;;;;;;17.83;11.70;;;11.60;99.90;;;;;;4948559;28;20039;-90
2022/10/22 04:51:01;;;;;;;23.10;12.35;;;11.60;99.90;;;;;;4956617;28;20035;-90
2022/10/22 04:53:27;;;;;;;16.13;12.18;;;11.60;99.90;;;;;;4956982;28;20062;-90
2022/10/22 04:55:53;;;;;;;24.42;11.82;;;11.50;99.90;;;;;;4938752;28;20046;-90
2022/10/22 04:58:19;;;;;;;24.50;12.57;;;11.60;99.90;;;;;;4953462;28;20067;-90
2022/10/22 05:00:45;;;;;;;18.70;12.07;;;11.40;99.90;;;;;;4971188;28;20047;-90
2022/10/22 05:03:10;;;;;;;18.20;12.43;;;11.40;99.90;;;;;;4960995;28;20035;-90
2022/10/22 05:05:36;;;;;;;21.10;12.82;;;11.40;99.90;;;;;;4952888;28;20051;-90
2022/10/22 05:08:02;;;;;;;21.20;12.23;;;11.30;99.90;;;;;;4945336;28;20035;-90
2022/10/22 05:10:27;;;;;;;21.85;13.27;;;11.30;99.90;;;;;;4959232;28;20456;-90
2022/10/22 05:12:53;;;;;;;28.02;13.75;;;11.30;99.90;;;;;;4944047;28;20077;-90
2022/10/22 05:15:19;;;;;;;24.25;13.85;;;11.30;99.90;;;;;;4943945;28;20093;-90
2022/10/22 05:17:44;;;;;;;24.75;14.23;;;11.30;99.90;;;;;;4959285;28;20922;-90
2022/10/22 05:20:10;;;;;;;21.55;13.68;;;11.20;99.90;;;;;;4930244;28;20101;-90
2022/10/22 05:22:36;;;;;;;22.17;13.75;;;11.20;99.90;;;;;;4955646;28;20114;-90
2022/10/22 05:25:01;;;;;;;21.40;13.50;;;11.20;99.90;;;;;;4954418;28;20046;-90
2022/10/22 05:27:27;;;;;;;24.30;14.00;;;11.20;99.90;;;;;;4956581;28;20047;-90
2022/10/22 05:29:53;;;;;;;27.23;14.65;;;11.20;99.90;;;;;;4930049;28;20111;-90
2022/10/22 05:32:18;;;;;;;23.33;13.90;;;11.10;99.90;;;;;;4931139;28;20074;-89
2022/10/22 05:34:44;;;;;;;24.23;13.65;;;11.10;99.90;;;;;;4973982;28;20054;-89
2022/10/22 05:37:10;;;;;;;29.65;13.98;;;11.10;99.90;;;;;;4955330;28;20046;-89
2022/10/22 05:39:38;;;;;;;24.13;14.20;;;11.10;99.90;;;;;;4944907;28;20421;-90
2022/10/22 05:42:04;;;;;;;26.77;13.85;;;11.10;99.90;;;;;;4943028;28;20035;-90
2022/10/22 05:44:30;;;;;;;25.25;13.43;;;11.10;99.90;;;;;;4946346;28;20096;-90
2022/10/22 05:46:56;;;;;;;26.85;13.75;;;11.10;99.90;;;;;;4956385;28;20042;-89
2022/10/22 05:49:21;;;;;;;30.00;15.45;;;11.20;99.90;;;;;;4943131;28;20057;-90
2022/10/22 05:51:47;;;;;;;29.25;16.38;;;11.50;99.90;;;;;;4939500;28;20099;-90
2022/10/22 05:54:21;;;;;;;24.58;14.75;;;11.30;99.90;;;;;;4941259;28;20081;-89
2022/10/22 05:56:47;;;;;;;27.25;15.57;;;11.30;99.90;;;;;;4986204;28;20051;-89
2022/10/22 05:59:12;;;;;;;28.35;14.57;;;11.30;99.90;;;;;;4937462;28;20569;-89
2022/10/22 06:01:39;;;;;;;30.13;14.85;;;11.30;99.90;;;;;;4932503;28;20122;-89
2022/10/22 06:04:10;;;;;;;25.55;14.57;;;11.30;99.90;;;;;;4952791;28;20393;-89
2022/10/22 06:06:38;;;;;;;27.30;14.25;;;11.30;99.90;;;;;;4970093;28;20039;-90
2022/10/22 06:09:14;;;;;;;27.55;14.40;;;11.30;99.90;;;;;;4957360;28;20043;-90
2022/10/22 06:11:40;;;;;;;27.10;14.57;;;11.30;99.90;;;;;;4984401;28;20047;-90
2022/10/22 06:14:06;;;;;;;28.30;13.75;;;11.30;99.90;;;;;;4939197;28;20098;-89
2022/10/22 06:16:32;;;;;;;21.33;13.43;;;11.30;99.90;;;;;;4975323;28;20131;-90
2022/10/22 06:19:00;;;;;;;26.40;13.73;;;11.30;99.90;;;;;;4958201;28;20468;-90
2022/10/22 06:21:27;;;;;;;20.70;13.77;;;11.20;99.90;;;;;;4954406;28;20059;-90
2022/10/22 06:23:58;;;;;;;26.35;14.23;;;11.30;99.90;;;;;;4953770;28;20125;-89
2022/10/22 06:26:24;;;;;;;25.17;14.18;;;11.30;99.90;;;;;;4970510;28;20070;-90
2022/10/22 06:28:50;;;;;;;32.17;14.25;;;11.30;99.90;;;;;;4958324;28;20051;-90
2022/10/22 06:31:16;;;;;;;26.77;12.77;;;11.30;99.90;;;;;;4930429;28;20035;-90
2022/10/22 06:33:42;;;;;;;23.42;12.52;;;11.40;99.90;;;;;;4949124;28;20030;-91
2022/10/22 06:36:13;;;;;;;25.05;14.10;;;11.40;99.90;;;;;;4962349;28;20074;-94
2022/10/22 06:38:39;;;;;;;23.40;13.93;;;11.40;99.90;;;;;;4974332;28;20049;-92
2022/10/22 06:41:09;;;;;;;31.42;13.32;;;11.50;99.90;;;;;;4960401;28;20121;-90
2022/10/22 06:43:34;;;;;;;25.27;14.15;;;11.50;99.90;;;;;;4949597;28;20102;-96
2022/10/22 06:46:33;;;;;;;25.58;13.18;;;11.60;99.90;;;;;;4942869;28;20054;-96
2022/10/22 06:49:05;;;;;;;26.30;13.65;;;11.60;99.90;;;;;;4974674;28;20050;-96
2022/10/22 06:51:30;;;;;;;25.45;14.10;;;11.60;99.90;;;;;;4963731;28;20042;-95
2022/10/22 06:53:57;;;;;;;25.15;13.10;;;11.70;99.90;;;;;;4957738;28;20073;-95
2022/10/22 06:56:25;;;;;;;29.55;13.80;;;11.70;99.90;;;;;;4955502;28;20035;-95
2022/10/22 06:58:53;;;;;;;28.63;14.48;;;11.80;99.90;;;;;;4972146;28;20141;-95
2022/10/22 07:01:24;;;;;;;21.95;13.15;;;11.80;99.90;;;;;;4914216;29;20051;-96
2022/10/22 07:03:50;;;;;;;22.73;12.93;;;11.90;99.90;;;;;;4930688;29;20054;-96
2022/10/22 07:06:17;;;;;;;23.42;13.85;;;12.00;99.90;;;;;;4921283;29;20040;-94
2022/10/22 07:08:44;;;;;;;22.88;13.88;;;12.10;99.90;;;;;;4913121;29;20055;-93
2022/10/22 07:11:18;;;;;;;29.90;14.48;;;12.10;99.90;;;;;;4916289;29;20043;-91
2022/10/22 07:13:45;;;;;;;27.88;13.30;;;12.20;99.90;;;;;;4926699;29;20504;-92
2022/10/22 07:16:11;;;;;;;28.45;13.60;;;12.30;99.90;;;;;;4925535;29;20531;-91
2022/10/22 07:18:38;;;;;;;28.90;13.52;;;12.40;99.90;;;;;;4912181;29;20046;-93
2022/10/22 07:21:05;;;;;;;24.45;12.52;;;12.40;99.90;;;;;;4923247;29;20047;-88
2022/10/22 07:23:31;;;;;;;22.75;12.05;;;12.50;99.90;;;;;;4932112;29;20130;-89
2022/10/22 07:25:57;;;;;;;19.40;11.15;;;12.60;99.90;;;;;;4928343;29;20577;-91
2022/10/22 07:28:23;;;;;;;22.45;11.10;;;12.70;99.90;;;;;;4913125;29;20058;-87
2022/10/22 07:30:48;;;;;;;20.83;10.68;;;12.80;99.90;;;;;;4905471;29;20418;-89
2022/10/22 07:33:14;;;;;;;15.77;10.43;;;12.90;99.90;;;;;;4943040;29;20062;-91
2022/10/22 07:35:41;;;;;;;21.77;11.30;;;12.90;99.90;;;;;;4899680;29;20103;-87
2022/10/22 07:38:07;;;;;;;19.38;10.13;;;13.00;99.90;;;;;;4930038;29;20040;-88
2022/10/22 07:40:33;;;;;;;15.20;10.02;;;13.20;99.90;;;;;;4924051;29;20051;-87
2022/10/22 07:43:00;;;;;;;18.67;9.43;;;13.20;99.90;;;;;;4907111;29;20119;-87
2022/10/22 07:45:25;;;;;;;17.65;9.43;;;13.30;99.90;;;;;;4917800;29;20035;-88
2022/10/22 07:47:51;;;;;;;17.80;9.32;;;13.40;99.90;;;;;;4930530;29;20044;-87
2022/10/22 07:50:18;;;;;;;18.20;9.05;;;13.40;99.90;;;;;;4906087;29;20520;-87
2022/10/22 07:52:43;;;;;;;20.17;9.10;;;13.50;99.90;;;;;;4924159;29;20132;-86
2022/10/22 07:55:09;;;;;;;20.40;9.38;;;13.60;99.90;;;;;;4922471;29;20083;-87
2022/10/22 07:57:38;;;;;;;19.25;8.52;;;13.60;99.90;;;;;;4936232;29;20488;-90
2022/10/22 08:00:06;;;;;;;16.60;7.63;;;13.60;99.90;;;;;;4952505;28;20519;-89
2022/10/22 08:02:32;;;;;;;14.52;8.65;;;13.70;99.90;;;;;;4964377;28;20054;-88
2022/10/22 08:04:58;;;;;;;15.73;7.78;;;13.80;99.90;;;;;;4946571;28;20035;-88
2022/10/22 08:07:24;;;;;;;17.63;8.23;;;13.80;99.90;;;;;;4949435;28;20066;-89
2022/10/22 08:09:50;;;;;;;15.80;8.07;;;13.80;99.90;;;;;;4974013;28;20035;-87
2022/10/22 08:12:15;;;;;;;11.32;7.43;;;13.80;99.90;;;;;;4957362;28;20066;-89
2022/10/22 08:14:41;;;;;;;12.93;7.30;;;13.90;99.90;;;;;;4955369;28;20049;-88
2022/10/22 08:17:07;;;;;;;19.52;8.07;;;13.90;99.90;;;;;;4961651;28;20380;-88
2022/10/22 08:19:34;;;;;;;21.27;7.47;;;13.90;99.90;;;;;;4930316;28;20143;-88
2022/10/22 08:22:00;;;;;;;18.85;7.45;;;13.90;99.90;;;;;;4942296;28;20042;-84
2022/10/22 08:24:26;;;;;;;20.45;8.00;;;13.90;99.90;;;;;;4964008;28;20034;-89
2022/10/22 08:26:55;;;;;;;12.82;7.72;;;13.80;99.90;;;;;;4987703;28;20042;-86
2022/10/22 08:29:22;;;;;;;13.85;7.68;;;13.90;99.90;;;;;;4937380;28;20038;-85
2022/10/22 08:31:49;;;;;;;14.20;7.75;;;13.90;99.90;;;;;;4947769;28;20070;-86
2022/10/22 08:34:15;;;;;;;15.40;7.18;;;13.90;99.90;;;;;;4987493;28;20382;-86
2022/10/22 08:36:40;;;;;;;18.35;7.93;;;13.80;99.90;;;;;;4984312;28;20049;-86
2022/10/22 08:39:06;;;;;;;15.05;7.88;;;13.90;99.90;;;;;;4967949;28;20452;-86
2022/10/22 08:41:42;;;;;;;15.63;7.55;;;13.90;99.90;;;;;;4935370;28;20485;-86
2022/10/22 08:44:32;;;;;;;15.13;7.35;;;13.90;99.90;;;;;;4968010;28;20051;-88
2022/10/22 08:47:04;;;;;;;14.57;7.10;;;14.00;99.90;;;;;;4951124;28;20050;-88
2022/10/22 08:49:36;;;;;;;14.90;7.35;;;13.90;99.90;;;;;;4950226;28;20067;-88
2022/10/22 08:52:02;;;;;;;14.63;7.22;;;13.90;99.90;;;;;;4950428;28;20039;-86
2022/10/22 08:54:35;;;;;;;12.43;7.00;;;13.90;99.90;;;;;;4954121;28;20111;-86
2022/10/22 08:57:07;;;;;;;16.13;7.45;;;14.00;99.90;;;;;;4952613;28;20049;-90
2022/10/22 08:59:41;;;;;;;23.45;8.15;;;14.00;99.90;;;;;;4954798;28;20050;-91
2022/10/22 09:02:39;;;;;;;17.80;7.50;;;14.10;99.90;;;;;;4949464;28;20039;-88
2022/10/22 09:05:16;;;;;;;13.48;6.50;;;14.20;99.90;;;;;;4941132;28;20373;-87
2022/10/22 09:07:47;;;;;;;18.42;7.55;;;14.30;99.90;;;;;;4950587;28;20054;-87
2022/10/22 09:10:13;;;;;;;16.55;7.05;;;14.40;99.90;;;;;;4950176;28;20656;-88
2022/10/22 09:12:39;;;;;;;17.27;7.03;;;14.50;99.90;;;;;;4939083;28;20042;-88
2022/10/22 09:15:05;;;;;;;15.15;6.32;;;14.60;99.90;;;;;;4933191;28;20511;-89
2022/10/22 09:17:48;;;;;;;13.73;6.43;;;14.70;99.90;;;;;;4932552;28;20836;-90
2022/10/22 09:20:27;;;;;;;16.77;6.65;;;14.80;99.90;;;;;;4976718;28;20039;-88
2022/10/22 09:23:12;;;;;;;14.95;6.47;;;14.90;99.90;;;;;;4950665;28;20070;-88
2022/10/22 09:25:39;;;;;;;10.50;5.78;;;14.90;99.90;;;;;;4954731;28;20106;-88
2022/10/22 09:28:04;;;;;;;19.33;6.35;;;14.90;99.90;;;;;;4949404;28;20097;-90
2022/10/22 09:30:36;;;;;;;13.65;6.25;;;15.00;99.90;;;;;;4950097;28;20035;-89
2022/10/22 09:33:10;;;;;;;15.45;5.90;;;15.00;99.90;;;;;;4955595;28;20094;-88
2022/10/22 09:36:02;;;;;;;11.75;5.97;;;15.10;99.90;;;;;;4951342;28;20042;-89
2022/10/22 09:38:39;;;;;;;10.65;5.60;;;15.10;99.90;;;;;;4949011;28;20043;-89
2022/10/22 09:41:05;;;;;;;21.42;6.38;;;15.10;99.90;;;;;;4945950;28;20047;-91
2022/10/22 09:43:32;;;;;;;14.15;6.32;;;15.20;99.90;;;;;;4979185;28;20078;-89
2022/10/22 09:46:04;;;;;;;12.75;5.63;;;15.20;99.90;;;;;;4952188;28;20042;-91
2022/10/22 09:48:35;;;;;;;12.93;5.13;;;15.20;99.90;;;;;;4953302;28;20046;-90
2022/10/22 09:51:22;;;;;;;12.02;5.32;;;15.20;99.90;;;;;;4947643;28;20039;-89
2022/10/22 09:54:00;;;;;;;13.85;5.35;;;15.30;99.90;;;;;;4948021;28;20117;-89
2022/10/22 09:56:27;;;;;;;10.00;5.50;;;15.20;99.90;;;;;;4949484;28;20182;-89
2022/10/22 09:58:56;;;;;;;10.75;5.97;;;15.20;99.90;;;;;;4951272;28;20093;-89
2022/10/22 10:01:28;;;;;;;10.05;4.78;;;15.20;99.90;;;;;;4952212;28;20148;-88
2022/10/22 10:04:05;;;;;;;9.35;5.35;;;15.20;99.90;;;;;;4980562;28;20051;-89
2022/10/22 10:06:33;;;;;;;11.98;4.55;;;15.20;99.90;;;;;;4958782;28;20031;-90
2022/10/22 10:09:02;;;;;;;8.80;4.95;;;15.10;99.90;;;;;;4937377;28;20689;-92
2022/10/22 10:11:28;;;;;;;11.82;5.32;;;15.10;99.90;;;;;;4940896;28;20074;-90
2022/10/22 10:14:14;;;;;;;17.98;5.55;;;15.10;99.90;;;;;;4949615;28;20038;-91
2022/10/22 10:16:56;;;;;;;17.45;5.68;;;15.10;99.90;;;;;;4936057;28;20416;-90
2022/10/22 10:19:47;;;;;;;17.23;4.82;;;15.10;99.90;;;;;;4952833;28;20395;-90
2022/10/22 10:22:38;;;;;;;14.52;5.15;;;15.10;99.90;;;;;;4938678;28;20070;-93
2022/10/22 10:25:17;;;;;;;14.93;5.13;;;15.00;99.90;;;;;;4956970;28;20126;-91
2022/10/22 10:27:57;;;;;;;18.33;5.10;;;15.00;99.90;;;;;;4949553;28;20039;-90
2022/10/22 10:30:23;;;;;;;12.27;4.65;;;15.00;99.90;;;;;;4958613;28;20082;-89
2022/10/22 10:33:11;;;;;;;10.82;4.45;;;15.00;99.90;;;;;;4943034;28;20520;-92
2022/10/22 10:35:54;;;;;;;9.68;4.57;;;15.00;99.90;;;;;;4958758;28;20050;-93
2022/10/22 10:38:27;;;;;;;12.00;4.72;;;15.00;99.90;;;;;;4945076;28;20042;-92
2022/10/22 10:41:02;;;;;;;14.38;5.03;;;15.00;99.90;;;;;;4938860;28;20046;-93
2022/10/22 10:43:32;;;;;;;14.05;4.72;;;15.00;99.90;;;;;;4938249;28;20165;-90
2022/10/22 10:46:10;;;;;;;12.48;5.20;;;15.00;99.90;;;;;;4942348;28;20039;-90
2022/10/22 10:48:49;;;;;;;9.27;4.80;;;15.00;99.90;;;;;;4947663;28;20392;-92
2022/10/22 10:51:30;;;;;;;12.70;5.15;;;15.10;99.90;;;;;;4939936;28;20137;-88
2022/10/22 10:54:25;;;;;;;12.63;4.93;;;15.10;99.90;;;;;;4940323;28;20573;-90
2022/10/22 10:57:02;;;;;;;14.48;6.03;;;15.10;99.90;;;;;;4939424;28;20035;-90
2022/10/22 10:59:56;;;;;;;21.48;5.47;;;15.10;99.90;;;;;;4937090;28;20039;-90
2022/10/22 11:02:47;;;;;;;15.27;5.07;;;15.20;99.90;;;;;;4933731;28;20155;-90
2022/10/22 11:05:31;;;;;;;15.05;5.55;;;15.20;99.90;;;;;;4941311;28;20077;-92
2022/10/22 11:08:30;;;;;;;13.57;5.85;;;15.30;99.90;;;;;;4917256;28;20049;-90
2022/10/22 11:11:25;;;;;;;12.63;5.47;;;15.30;99.90;;;;;;4918474;28;20051;-89
2022/10/22 11:13:54;;;;;;;11.30;5.40;;;15.40;99.90;;;;;;4946869;28;20035;-90
2022/10/22 11:16:38;;;;;;;14.88;4.68;;;15.40;99.90;;;;;;4922264;28;20035;-91
2022/10/22 11:19:28;;;;;;;10.43;5.28;;;15.50;99.90;;;;;;4934546;28;20379;-87
2022/10/22 11:22:05;;;;;;;14.27;5.28;;;15.50;99.90;;;;;;4931620;28;20513;-93
2022/10/22 11:25:12;;;;;;;13.80;5.55;;;15.50;99.90;;;;;;4932347;28;21182;-90
2022/10/22 11:28:02;;;;;;;10.98;5.43;;;15.40;99.90;;;;;;4839349;29;20047;-90
2022/10/22 11:30:34;;;;;;;13.45;6.15;;;15.40;99.90;;;;;;4934275;28;20046;-92
2022/10/22 11:33:08;;;;;;;9.52;5.90;;;15.30;99.90;;;;;;4949343;28;20106;-93
2022/10/22 11:35:39;;;;;;;11.82;6.28;;;15.30;99.90;;;;;;4924165;28;20043;-90
2022/10/22 11:38:08;;;;;;;12.77;6.32;;;15.30;99.90;;;;;;4932474;28;20039;-86
2022/10/22 11:40:43;;;;;;;12.02;6.95;;;15.30;99.90;;;;;;4922458;28;20038;-88
2022/10/22 11:43:24;;;;;;;15.60;6.18;;;15.30;99.90;;;;;;4922229;28;20242;-89
2022/10/22 11:46:01;;;;;;;11.20;6.47;;;15.30;99.90;;;;;;4931668;28;20069;-87
2022/10/22 11:48:34;;;;;;;11.57;6.05;;;15.20;99.90;;;;;;4922038;28;20125;-88
2022/10/22 11:51:01;;;;;;;10.05;6.75;;;15.20;99.90;;;;;;4913539;28;20047;-88
2022/10/22 11:53:37;;;;;;;12.95;6.45;;;15.20;99.90;;;;;;4921912;28;20520;-87
2022/10/22 11:56:06;;;;;;;14.90;7.55;;;15.30;99.90;;;;;;4931181;28;20096;-87
2022/10/22 11:58:38;;;;;;;15.48;7.57;;;15.30;99.90;;;;;;4915581;28;20043;-91
2022/10/22 12:01:07;;;;;;;11.50;6.97;;;15.20;99.90;;;;;;4948321;28;20043;-91
2022/10/22 12:03:33;;;;;;;12.52;7.10;;;15.20;99.90;;;;;;4922644;28;20078;-90
2022/10/22 12:06:02;;;;;;;10.52;6.60;;;15.20;99.90;;;;;;4934694;28;20089;-91
2022/10/22 12:08:28;;;;;;;11.57;8.00;;;15.20;99.90;;;;;;4923824;28;20034;-90
2022/10/22 12:11:05;;;;;;;19.70;8.20;;;15.20;99.90;;;;;;4934606;28;20046;-91
2022/10/22 12:13:57;;;;;;;12.00;7.88;;;15.10;99.90;;;;;;4931023;28;20035;-87
2022/10/22 12:16:27;;;;;;;19.35;8.27;;;15.10;99.90;;;;;;4924279;28;20050;-89
2022/10/22 12:19:01;;;;;;;21.45;8.25;;;15.10;99.90;;;;;;4932019;28;20106;-89
2022/10/22 12:21:27;;;;;;;15.50;8.00;;;15.10;99.90;;;;;;4946501;28;20046;-87
2022/10/22 12:23:53;;;;;;;12.23;7.03;;;15.20;99.90;;;;;;4921579;28;20035;-87
2022/10/22 12:26:27;;;;;;;11.65;7.18;;;15.40;99.90;;;;;;4940692;28;20043;-88
2022/10/22 12:29:01;;;;;;;12.02;7.20;;;15.50;99.90;;;;;;4924905;28;20133;-87
2022/10/22 12:31:34;;;;;;;13.35;7.28;;;15.50;99.90;;;;;;4928524;28;20051;-88
2022/10/22 12:34:00;;;;;;;11.65;6.68;;;15.60;99.90;;;;;;4923097;28;20985;-88
2022/10/22 12:36:31;;;;;;;13.50;6.55;;;15.60;99.90;;;;;;4913469;28;20034;-88
2022/10/22 12:39:10;;;;;;;14.82;7.13;;;15.70;99.90;;;;;;4949577;28;20039;-89
2022/10/22 12:41:38;;;;;;;13.40;7.25;;;15.80;99.90;;;;;;4949267;28;20493;-87
2022/10/22 12:44:04;;;;;;;14.75;5.95;;;15.80;99.90;;;;;;4923587;28;20378;-89
2022/10/22 12:46:32;;;;;;;14.10;6.15;;;15.80;99.90;;;;;;4923641;28;20054;-88
2022/10/22 12:49:05;;;;;;;11.77;5.88;;;15.80;99.90;;;;;;4948020;28;20039;-89
2022/10/22 12:51:31;;;;;;;11.20;5.47;;;15.80;99.90;;;;;;4924911;28;20079;-88